Time;durP1;ratioP1;P1;durP2;ratioP2;P2;SDS_P1;SDS_P2;PMS_P1;PMS_P2;Temp;Humidity;BMP_temperature;BMP_pressure;BME280_temperature;BME280_humidity;BME280_pressure;Samples;Min_cycle;Max_cycle;Signal;HPM_P1;HPM_P2
2021/01/04 00:00:05;;;;;;;47.13;27.13;;;;;;;0.43;93.58;98407.03;4955636;28;20030;-78
2021/01/04 00:02:48;;;;;;;50.65;27.15;;;;;;;0.53;93.38;98403.78;4955472;28;20444;-78
2021/01/04 00:05:34;;;;;;;49.97;28.38;;;;;;;0.56;93.18;98401.28;4955511;28;20027;-78
2021/01/04 00:08:34;;;;;;;48.70;27.88;;;;;;;0.60;93.24;98405.59;4955641;28;20027;-77
2021/01/04 00:11:18;;;;;;;;;;;;;;;0.54;93.19;98404.66;4955820;28;20028;-77
2021/01/04 00:14:08;;;;;;;46.03;26.83;;;;;;;0.46;93.37;98412.19;4955261;28;19930;-77
2021/01/04 00:16:52;;;;;;;;;;;;;;;0.42;93.46;98402.75;4955903;28;20054;-77
2021/01/04 00:19:31;;;;;;;45.38;26.10;;;;;;;0.46;93.50;98397.75;4955281;28;20407;-77
2021/01/04 00:22:03;;;;;;;46.75;27.48;;;;;;;0.49;93.43;98396.94;4955266;28;20035;-78
2021/01/04 00:24:46;;;;;;;45.05;26.85;;;;;;;0.52;93.26;98402.06;4955096;28;20030;-78
2021/01/04 00:27:31;;;;;;;48.58;26.70;;;;;;;0.51;93.45;98397.81;4955277;28;20110;-78
2021/01/04 00:30:10;;;;;;;48.58;27.58;;;;;;;0.42;93.26;98395.97;4955058;28;20031;-77
2021/01/04 00:32:36;;;;;;;54.40;28.67;;;;;;;0.41;93.64;98398.50;4955123;28;20035;-77
2021/01/04 00:35:11;;;;;;;51.63;28.65;;;;;;;0.36;93.67;98405.22;4955036;28;20035;-77
2021/01/04 00:37:58;;;;;;;50.45;28.42;;;;;;;0.35;93.89;98408.59;4954919;28;20511;-78
2021/01/04 00:40:57;;;;;;;50.30;28.95;;;;;;;0.53;94.71;98398.69;4954894;29;20035;-78
2021/01/04 00:43:37;;;;;;;51.22;29.33;;;;;;;0.45;93.49;98405.38;4954921;28;20031;-77
2021/01/04 00:46:03;;;;;;;51.63;29.95;;;;;;;0.46;93.58;98405.38;4954733;28;20038;-78
2021/01/04 00:48:35;;;;;;;51.97;29.15;;;;;;;0.37;93.61;98401.84;4954836;28;20073;-78
2021/01/04 00:51:35;;;;;;;51.85;28.50;;;;;;;0.44;93.50;98401.13;4954439;28;20054;-77
2021/01/04 00:54:13;;;;;;;53.25;27.83;;;;;;;0.50;93.70;98399.50;4954833;29;20031;-77
2021/01/04 00:56:55;;;;;;;51.15;28.27;;;;;;;0.52;93.37;98402.94;4954690;28;20408;-77
2021/01/04 00:59:51;;;;;;;48.03;26.90;;;;;;;0.56;93.55;98398.75;4954579;28;20031;-77
2021/01/04 07:01:31;;;;;;;59.63;29.20;;;;;;;0.19;94.63;98438.94;5666709;23;20058;-72
2021/01/04 07:04:41;;;;;;;50.95;28.58;;;;;;;0.21;94.87;98437.25;4937312;29;20046;-71
2021/01/04 07:07:27;;;;;;;55.47;29.77;;;;;;;0.15;94.68;98442.25;4916265;29;20481;-72
2021/01/04 07:10:16;;;;;;;54.00;29.60;;;;;;;0.17;94.97;98448.22;4953385;29;20046;-71
2021/01/04 07:13:10;;;;;;;52.30;28.45;;;;;;;0.11;94.85;98450.66;4936949;29;20114;-71
2021/01/04 07:15:48;;;;;;;57.97;29.20;;;;;;;0.13;94.94;98443.88;4937492;29;20516;-71
2021/01/04 07:18:26;;;;;;;54.17;29.55;;;;;;;0.13;94.82;98451.53;4937381;29;20461;-71
2021/01/04 07:21:18;;;;;;;52.85;27.48;;;;;;;0.20;94.80;98447.41;4936769;29;20040;-71
2021/01/04 07:24:24;;;;;;;58.83;30.38;;;;;;;0.22;94.83;98454.25;4934228;29;20094;-71
2021/01/04 07:27:18;;;;;;;54.70;28.70;;;;;;;0.23;94.63;98448.31;4935808;29;20032;-70
2021/01/04 07:30:09;;;;;;;59.40;29.05;;;;;;;0.24;94.43;98452.59;4937175;29;20024;-71
2021/01/04 07:32:52;;;;;;;55.83;27.33;;;;;;;0.29;94.36;98455.22;4937158;29;20039;-72
2021/01/04 07:35:41;;;;;;;50.25;27.73;;;;;;;0.22;94.68;98454.25;4936970;29;20094;-72
2021/01/04 07:38:41;;;;;;;54.95;29.15;;;;;;;0.14;94.52;98465.97;4934547;29;20413;-72
2021/01/04 07:41:23;;;;;;;51.40;28.17;;;;;;;0.13;94.64;98461.72;4917803;29;20043;-72
2021/01/04 07:44:07;;;;;;;51.03;28.77;;;;;;;0.18;94.80;98461.81;4918026;29;20024;-72
2021/01/04 07:47:02;;;;;;;54.00;28.73;;;;;;;0.13;94.97;98464.25;4917646;29;20107;-72
2021/01/04 07:49:56;;;;;;;51.70;29.27;;;;;;;0.18;94.93;98452.47;4917868;29;20024;-72
2021/01/04 07:52:43;;;;;;;55.47;28.30;;;;;;;0.21;94.48;98462.72;4917490;29;20055;-72
2021/01/04 07:55:32;;;;;;;51.90;28.77;;;;;;;0.19;94.27;98464.41;4917732;29;20032;-72
2021/01/04 07:58:35;;;;;;;57.13;29.42;;;;;;;0.20;94.49;98471.22;4917592;29;20099;-72
2021/01/04 08:01:38;;;;;;;49.63;28.05;;;;;;;0.25;94.48;98464.50;4917438;29;20044;-73
2021/01/04 08:04:40;;;;;;;54.80;30.33;;;;;;;0.16;94.60;98471.97;4917505;29;20442;-73
2021/01/04 08:07:47;;;;;;;53.47;28.02;;;;;;;0.30;94.60;98466.28;4917508;29;20083;-70
2021/01/04 08:10:51;;;;;;;55.38;29.50;;;;;;;0.27;94.07;98476.41;4917283;29;20024;-70
2021/01/04 08:13:44;;;;;;;50.80;28.33;;;;;;;0.30;94.34;98472.22;4917503;29;20028;-71
2021/01/04 08:16:19;;;;;;;49.90;27.52;;;;;;;0.45;93.64;98457.19;4917347;29;20115;-74
2021/01/04 08:18:46;;;;;;;52.05;27.60;;;;;;;0.31;93.45;98468.00;4916127;29;20385;-74
2021/01/04 08:21:32;;;;;;;54.45;28.52;;;;;;;0.44;93.86;98460.59;4916955;29;20028;-74
2021/01/04 08:24:04;;;;;;;53.20;28.38;;;;;;;0.56;93.42;98459.91;4917249;29;20450;-73
2021/01/04 08:26:50;;;;;;;48.75;28.08;;;;;;;0.50;93.03;98464.91;4917001;29;20035;-70
2021/01/04 08:29:33;;;;;;;53.40;29.00;;;;;;;0.64;92.94;98460.91;4917210;29;20028;-73
2021/01/04 08:32:22;;;;;;;53.33;28.85;;;;;;;0.62;93.12;98465.09;4916810;29;20035;-73
2021/01/04 08:34:49;;;;;;;52.42;28.55;;;;;;;0.72;92.91;98472.06;4916950;29;20031;-74
2021/01/04 08:37:37;;;;;;;49.60;27.98;;;;;;;0.65;92.52;98470.25;4916751;29;20032;-74
2021/01/04 08:40:23;;;;;;;45.75;27.65;;;;;;;0.73;92.36;98478.91;4917050;29;20095;-74
2021/01/04 08:43:10;;;;;;;50.25;27.98;;;;;;;0.82;91.42;98477.31;4916545;29;20543;-73
2021/01/04 08:45:45;;;;;;;51.65;28.05;;;;;;;0.82;91.45;98473.06;4931361;29;20087;-73
2021/01/04 08:48:15;;;;;;;54.15;28.27;;;;;;;0.71;91.59;98480.56;4916590;29;20535;-72
2021/01/04 08:50:45;;;;;;;50.47;26.85;;;;;;;0.58;91.70;98480.31;4916478;29;20036;-72
2021/01/04 08:53:29;;;;;;;48.13;26.67;;;;;;;0.57;92.26;98481.16;4916593;29;20500;-71
2021/01/04 08:56:28;;;;;;;49.67;27.65;;;;;;;0.62;92.02;98490.59;4915431;29;20489;-71
2021/01/04 08:59:06;;;;;;;53.00;27.60;;;;;;;0.68;91.80;98485.63;4898276;29;20401;-70
2021/01/04 09:01:33;;;;;;;51.90;27.52;;;;;;;0.72;92.08;98479.72;4916227;29;20119;-70
2021/01/04 09:04:07;;;;;;;59.85;29.80;;;;;;;0.84;91.89;98486.72;4916272;29;20437;-69
2021/01/04 09:06:36;;;;;;;49.63;27.98;;;;;;;0.85;91.71;98483.31;4915153;29;20032;-70
2021/01/04 09:09:09;;;;;;;49.95;26.88;;;;;;;0.83;91.37;98491.81;4916344;29;20032;-70
2021/01/04 09:11:38;;;;;;;49.33;27.73;;;;;;;0.82;91.51;98498.56;4916268;29;20071;-70
2021/01/04 09:14:14;;;;;;;46.92;27.52;;;;;;;0.85;91.40;98497.78;4916207;29;20035;-70
2021/01/04 09:16:42;;;;;;;50.17;27.02;;;;;;;0.80;91.56;98491.75;4917026;29;20031;-72
2021/01/04 09:19:23;;;;;;;49.05;26.70;;;;;;;0.79;91.28;98497.69;4926592;29;20028;-72
2021/01/04 09:21:49;;;;;;;46.38;27.13;;;;;;;0.74;91.46;98493.38;4924376;29;20047;-72
2021/01/04 09:24:17;;;;;;;49.40;27.35;;;;;;;0.83;91.02;98494.34;4926518;29;20036;-72
2021/01/04 09:26:45;;;;;;;47.10;27.85;;;;;;;0.83;91.31;98494.34;4926471;29;20027;-72
2021/01/04 09:29:24;;;;;;;45.00;26.35;;;;;;;0.87;91.15;98488.44;4926547;29;21040;-72
2021/01/04 09:31:58;;;;;;;50.88;27.10;;;;;;;0.84;91.05;98490.97;4926376;29;20062;-72
2021/01/04 09:34:28;;;;;;;48.45;28.05;;;;;;;0.77;91.37;98490.00;4926570;29;20060;-72
2021/01/04 09:36:59;;;;;;;;;;;;;;;0.85;91.00;98488.44;4925976;29;20035;-72
2021/01/04 09:39:29;;;;;;;45.65;25.65;;;;;;;0.90;90.64;98491.06;4926505;29;19922;-73
2021/01/04 09:41:59;;;;;;;54.33;27.13;;;;;;;1.20;89.97;98485.53;4926277;29;20032;-73
2021/01/04 09:44:25;;;;;;;47.17;26.55;;;;;;;1.13;89.64;98479.50;4926150;29;20028;-72
2021/01/04 09:46:54;;;;;;;47.42;26.02;;;;;;;1.16;88.87;98474.47;4926118;29;20035;-72
2021/01/04 09:49:31;;;;;;;55.05;28.90;;;;;;;1.28;88.54;98466.97;4926477;28;20058;-72
2021/01/04 09:52:03;;;;;;;49.20;27.45;;;;;;;1.32;89.35;98469.56;4926061;29;20633;-72
2021/01/04 09:54:38;;;;;;;53.85;26.05;;;;;;;1.35;89.10;98462.78;4925061;29;20035;-72
2021/01/04 09:57:07;;;;;;;49.08;26.42;;;;;;;1.44;88.52;98462.06;4924948;29;20035;-72
2021/01/04 09:59:38;;;;;;;50.33;26.88;;;;;;;1.34;89.17;98462.78;4926462;29;20028;-72
2021/01/04 10:02:05;;;;;;;53.03;28.33;;;;;;;1.34;89.10;98457.66;4925663;29;20386;-72
2021/01/04 10:04:37;;;;;;;45.72;26.20;;;;;;;1.55;88.07;98460.53;4926342;29;20401;-73
2021/01/04 10:07:07;;;;;;;49.75;27.10;;;;;;;1.61;88.53;98452.94;4926352;29;20111;-72
2021/01/04 10:09:37;;;;;;;47.85;26.25;;;;;;;1.59;87.43;98459.69;4926080;29;20040;-73
2021/01/04 10:12:04;;;;;;;;;;;;;;;1.46;87.90;98457.84;4926596;29;20087;-72
2021/01/04 10:14:30;;;;;;;45.67;25.83;;;;;;;1.60;88.03;98456.31;4925996;29;19919;-72
2021/01/04 10:16:58;;;;;;;46.60;26.15;;;;;;;1.66;87.79;98456.41;4927611;29;20034;-71
2021/01/04 10:19:38;;;;;;;45.40;24.42;;;;;;;1.71;87.87;98453.91;4928278;29;20090;-70
2021/01/04 10:22:11;;;;;;;47.75;26.80;;;;;;;1.60;87.76;98448.66;4928656;29;20026;-70
2021/01/04 10:24:51;;;;;;;41.33;24.40;;;;;;;1.45;88.24;98464.66;4929753;29;20055;-70
2021/01/04 10:27:20;;;;;;;42.00;24.48;;;;;;;1.52;88.06;98463.03;4928177;29;20035;-72
2021/01/04 10:29:52;;;;;;;45.30;25.27;;;;;;;1.45;87.93;98466.31;4926543;29;20062;-72
2021/01/04 10:32:18;;;;;;;41.60;24.25;;;;;;;1.39;87.75;98462.00;4926169;29;20302;-72
2021/01/04 10:34:46;;;;;;;44.08;25.40;;;;;;;1.36;87.85;98461.13;4924481;29;20393;-72
2021/01/04 10:37:27;;;;;;;41.13;24.02;;;;;;;1.23;88.09;98460.94;4926335;29;20024;-72
2021/01/04 10:39:59;;;;;;;41.55;25.70;;;;;;;1.43;87.58;98463.75;4925702;29;20031;-73
2021/01/04 10:42:24;;;;;;;44.03;22.92;;;;;;;1.34;87.96;98457.66;4925819;29;20523;-76
2021/01/04 10:44:59;;;;;;;44.05;24.73;;;;;;;1.32;88.08;98454.25;4940566;28;20031;-71
2021/01/04 10:47:33;;;;;;;41.72;24.08;;;;;;;1.25;87.78;98456.69;4924788;29;20036;-69
2021/01/04 10:50:07;;;;;;;44.45;25.58;;;;;;;1.33;87.06;98455.97;4925959;29;20093;-69
2021/01/04 10:52:32;;;;;;;43.13;24.77;;;;;;;1.37;87.01;98458.56;4925938;29;20373;-69
2021/01/04 10:54:58;;;;;;;43.90;24.13;;;;;;;1.29;87.92;98465.25;4925751;29;20028;-69
2021/01/04 10:57:29;;;;;;;48.25;24.80;;;;;;;1.30;87.75;98461.88;4927445;29;20028;-69
2021/01/04 11:00:07;;;;;;;42.92;23.90;;;;;;;1.23;87.52;98457.53;4929353;29;20126;-69
2021/01/04 11:02:44;;;;;;;44.55;26.25;;;;;;;1.28;87.68;98454.19;4928851;29;20035;-69
2021/01/04 11:05:11;;;;;;;44.70;24.15;;;;;;;1.34;87.41;98455.13;4929303;29;20038;-69
2021/01/04 11:07:36;;;;;;;43.45;25.65;;;;;;;1.53;87.77;98454.53;4929188;29;20096;-69
2021/01/04 11:10:14;;;;;;;43.35;24.42;;;;;;;1.37;86.82;98457.72;4929323;29;20058;-69
2021/01/04 11:12:48;;;;;;;41.53;25.02;;;;;;;1.46;87.64;98452.75;4929453;29;20540;-69
2021/01/04 11:15:34;;;;;;;41.38;23.80;;;;;;;1.45;86.56;98443.34;4928879;29;20028;-69
2021/01/04 11:18:05;;;;;;;39.00;22.90;;;;;;;1.42;85.46;98440.78;4929623;29;20527;-69
2021/01/04 11:20:31;;;;;;;39.65;21.65;;;;;;;1.35;84.74;98439.81;4929045;29;20032;-69
2021/01/04 11:23:07;;;;;;;38.53;22.25;;;;;;;1.34;84.63;98442.34;4872439;28;20036;-69
2021/01/04 11:25:33;;;;;;;40.10;22.58;;;;;;;1.37;84.44;98433.06;4911599;29;20032;-69
2021/01/04 11:27:58;;;;;;;43.85;23.08;;;;;;;1.43;84.17;98434.81;4924330;29;20059;-70
2021/01/04 11:30:24;;;;;;;39.95;22.02;;;;;;;1.49;83.38;98422.13;4909561;29;20028;-70
2021/01/04 11:32:50;;;;;;;37.63;20.35;;;;;;;1.52;82.43;98417.06;4909870;29;20103;-70
2021/01/04 11:35:16;;;;;;;33.22;20.08;;;;;;;1.58;81.52;98418.84;4909516;29;20115;-69
2021/01/04 11:37:41;;;;;;;35.22;20.83;;;;;;;1.56;82.35;98418.84;4908307;29;20102;-69
2021/01/04 11:40:10;;;;;;;35.45;19.70;;;;;;;1.63;81.49;98410.38;4909713;29;20040;-69
2021/01/04 11:42:35;;;;;;;33.78;18.73;;;;;;;1.54;80.10;98416.22;4909239;29;20070;-69
2021/01/04 11:45:05;;;;;;;26.67;17.90;;;;;;;1.57;80.29;98415.44;4909595;29;20055;-69
2021/01/04 11:47:30;;;;;;;36.78;18.92;;;;;;;1.48;80.20;98415.31;4909492;29;20042;-76
2021/01/04 11:49:55;;;;;;;29.27;18.00;;;;;;;1.60;80.50;98412.94;4909437;29;20036;-76
2021/01/04 11:52:20;;;;;;;31.23;17.88;;;;;;;1.52;80.07;98411.97;4908698;29;20154;-76
2021/01/04 11:54:46;;;;;;;32.63;19.27;;;;;;;1.53;79.83;98403.47;4909256;29;20067;-75
2021/01/04 11:57:12;;;;;;;32.55;19.20;;;;;;;1.54;79.81;98400.91;4909645;29;20145;-76
2021/01/04 11:59:37;;;;;;;33.60;19.52;;;;;;;1.54;79.49;98400.06;4909478;29;20028;-76
2021/01/04 12:02:04;;;;;;;31.98;19.10;;;;;;;1.46;79.07;98396.59;4908368;29;20052;-76
2021/01/04 12:04:29;;;;;;;30.55;17.27;;;;;;;1.39;79.18;98394.78;4924008;29;20556;-76
2021/01/04 12:06:54;;;;;;;30.85;18.42;;;;;;;1.44;78.64;98394.00;4909808;29;20040;-75
2021/01/04 12:09:19;;;;;;;36.67;19.08;;;;;;;1.53;80.02;98395.81;4909321;29;20021;-75
2021/01/04 12:11:48;;;;;;;32.85;18.83;;;;;;;1.46;78.94;98391.47;4909540;29;20071;-74
2021/01/04 12:14:16;;;;;;;35.13;18.70;;;;;;;1.52;79.67;98396.66;4909504;29;20110;-73
2021/01/04 12:16:42;;;;;;;29.88;18.02;;;;;;;1.51;79.24;98394.94;4908983;29;20108;-74
2021/01/04 12:19:08;;;;;;;31.75;18.35;;;;;;;1.38;78.91;98393.06;4909044;29;20028;-73
2021/01/04 12:21:34;;;;;;;32.42;17.95;;;;;;;1.46;79.87;98388.94;4909149;29;20044;-74
2021/01/04 12:23:59;;;;;;;33.88;19.50;;;;;;;1.47;79.23;98382.97;4911120;29;20035;-73
2021/01/04 12:26:25;;;;;;;35.53;19.25;;;;;;;1.50;79.58;98383.03;4911642;29;20032;-73
2021/01/04 12:28:51;;;;;;;32.30;18.38;;;;;;;1.47;79.28;98377.88;4911141;29;20035;-73
2021/01/04 12:31:18;;;;;;;36.78;18.95;;;;;;;1.46;78.81;98371.06;4911740;29;20489;-73
2021/01/04 12:33:43;;;;;;;29.95;17.30;;;;;;;1.43;77.66;98376.13;4911841;29;20024;-73
2021/01/04 12:36:26;;;;;;;33.17;18.20;;;;;;;1.44;78.33;98371.03;4910737;29;20042;-73
2021/01/04 12:38:52;;;;;;;28.58;16.08;;;;;;;1.51;78.08;98369.41;4910641;29;20028;-74
2021/01/04 12:41:18;;;;;;;30.02;16.10;;;;;;;1.67;78.44;98365.31;4911541;29;20028;-73
2021/01/04 12:43:45;;;;;;;29.52;17.00;;;;;;;1.57;77.33;98377.13;4912387;29;21375;-73
2021/01/04 12:46:12;;;;;;;31.55;17.35;;;;;;;1.62;78.77;98367.81;4911570;29;20111;-73
2021/01/04 12:48:37;;;;;;;31.90;16.48;;;;;;;1.51;77.66;98369.41;4912281;29;20036;-73
2021/01/04 12:51:03;;;;;;;27.73;16.38;;;;;;;1.48;77.79;98369.38;4911657;29;20154;-74
2021/01/04 12:53:28;;;;;;;34.15;18.08;;;;;;;1.40;77.64;98365.88;4911259;29;20036;-73
2021/01/04 12:55:54;;;;;;;28.98;16.40;;;;;;;1.45;79.34;98364.22;4911882;29;20055;-73
2021/01/04 12:58:20;;;;;;;26.95;16.55;;;;;;;1.48;79.27;98359.16;4910402;29;20086;-74
2021/01/04 13:00:47;;;;;;;26.17;16.42;;;;;;;1.50;78.00;98357.50;4909609;29;20036;-74
2021/01/04 13:03:14;;;;;;;42.17;19.58;;;;;;;1.48;77.21;98361.72;4909439;29;20032;-73
2021/01/04 13:05:39;;;;;;;46.78;20.05;;;;;;;1.48;76.21;98359.16;4910541;29;20063;-74
2021/01/04 13:08:05;;;;;;;63.35;24.17;;;;;;;1.41;77.71;98363.34;4910429;29;20016;-74
2021/01/04 13:10:30;;;;;;;41.97;19.58;;;;;;;1.46;76.60;98359.16;4910130;29;20039;-73
2021/01/04 13:12:55;;;;;;;34.17;18.85;;;;;;;1.43;77.50;98371.88;4910991;29;20092;-73
2021/01/04 13:15:21;;;;;;;57.42;26.88;;;;;;;1.32;77.46;98367.50;4904762;29;20079;-73
2021/01/04 13:17:46;;;;;;;45.83;22.52;;;;;;;1.30;77.78;98359.78;4909885;29;20019;-73
2021/01/04 13:20:12;;;;;;;36.00;19.63;;;;;;;1.36;78.80;98354.78;4898948;28;20584;-73
2021/01/04 13:22:41;;;;;;;51.35;22.02;;;;;;;1.33;78.89;98359.84;4947128;29;20023;-73
2021/01/04 13:25:08;;;;;;;32.88;17.83;;;;;;;1.36;78.59;98359.88;4947849;29;20046;-73
2021/01/04 13:27:33;;;;;;;40.65;18.75;;;;;;;1.29;78.27;98358.09;4947456;28;20041;-73
2021/01/04 13:29:59;;;;;;;55.15;24.08;;;;;;;1.35;78.84;98359.84;4947628;29;20027;-74
2021/01/04 13:32:24;;;;;;;31.27;17.40;;;;;;;1.35;77.71;98359.84;4947407;28;20413;-73
2021/01/04 13:34:50;;;;;;;31.98;18.33;;;;;;;1.29;78.29;98358.09;4947279;28;20062;-73
2021/01/04 13:37:16;;;;;;;35.90;18.52;;;;;;;1.32;78.49;98359.84;4947038;28;20043;-73
2021/01/04 13:39:42;;;;;;;32.45;16.35;;;;;;;1.28;78.13;98359.78;4946643;29;20042;-73
2021/01/04 13:42:08;;;;;;;31.75;17.42;;;;;;;1.17;78.17;98357.94;4945971;29;20082;-74
2021/01/04 13:44:34;;;;;;;31.98;16.23;;;;;;;1.40;79.01;98355.66;4945789;29;20031;-74
2021/01/04 13:47:02;;;;;;;31.92;17.00;;;;;;;1.19;78.96;98357.13;4945908;28;20544;-74
2021/01/04 13:49:28;;;;;;;33.85;17.00;;;;;;;1.20;78.55;98352.88;4945692;29;20026;-74
2021/01/04 13:51:53;;;;;;;33.17;17.17;;;;;;;1.20;78.60;98361.38;4944542;29;20038;-73
2021/01/04 13:54:19;;;;;;;32.58;17.60;;;;;;;1.09;79.05;98360.41;4945946;28;20023;-73
2021/01/04 13:56:49;;;;;;;30.42;16.63;;;;;;;1.08;78.95;98363.78;4946105;28;20027;-73
2021/01/04 13:59:15;;;;;;;27.73;15.57;;;;;;;1.05;78.96;98362.88;4945613;29;20035;-73
2021/01/04 14:01:42;;;;;;;26.40;15.75;;;;;;;1.12;78.89;98370.66;4945282;28;20047;-73
2021/01/04 14:04:08;;;;;;;31.27;16.73;;;;;;;1.02;79.78;98369.66;4945970;29;20031;-73
2021/01/04 14:06:38;;;;;;;30.15;16.05;;;;;;;1.19;79.25;98374.97;4945778;29;20027;-73
2021/01/04 14:09:04;;;;;;;30.15;16.33;;;;;;;1.08;79.75;98371.44;4946129;29;20475;-73
2021/01/04 14:11:30;;;;;;;31.90;17.25;;;;;;;1.08;79.75;98368.03;4945945;29;20067;-74
2021/01/04 14:13:55;;;;;;;33.85;18.63;;;;;;;1.01;79.91;98367.94;4946284;28;20065;-73
2021/01/04 14:16:26;;;;;;;34.10;18.98;;;;;;;0.99;80.05;98366.22;4944916;29;20425;-73
2021/01/04 14:18:54;;;;;;;34.40;19.13;;;;;;;0.94;79.93;98372.94;4945223;29;20118;-74
2021/01/04 14:21:19;;;;;;;34.63;19.50;;;;;;;0.93;80.02;98373.78;4945020;28;20055;-66
2021/01/04 14:23:46;;;;;;;37.90;20.52;;;;;;;1.00;79.96;98375.56;4944564;29;20062;-70
2021/01/04 14:26:11;;;;;;;31.33;19.77;;;;;;;1.01;79.02;98378.13;4959722;28;20361;-70
2021/01/04 14:28:37;;;;;;;32.13;20.25;;;;;;;0.90;79.78;98379.69;4944838;29;20042;-69
2021/01/04 14:31:02;;;;;;;39.75;23.13;;;;;;;0.86;79.83;98382.19;4946094;28;20027;-70
2021/01/04 14:33:28;;;;;;;41.60;23.05;;;;;;;0.76;79.76;98382.03;4948127;28;20091;-70
2021/01/04 14:35:54;;;;;;;36.38;21.35;;;;;;;0.85;79.79;98380.47;4948281;29;20042;-71
2021/01/04 14:38:19;;;;;;;39.38;22.73;;;;;;;0.74;79.89;98378.63;4948420;28;20031;-70
2021/01/04 14:40:46;;;;;;;37.90;22.83;;;;;;;0.76;79.91;98384.59;4948231;29;20062;-70
2021/01/04 14:43:11;;;;;;;38.20;21.65;;;;;;;0.68;79.56;98383.66;4948302;28;20031;-70
2021/01/04 14:45:38;;;;;;;39.47;23.67;;;;;;;0.72;79.73;98387.94;4948969;28;20074;-70
2021/01/04 14:48:05;;;;;;;42.28;24.55;;;;;;;0.78;80.12;98384.63;4948467;28;20456;-70
2021/01/04 14:50:30;;;;;;;38.25;22.23;;;;;;;0.62;79.52;98378.44;4947603;28;20035;-71
2021/01/04 14:52:56;;;;;;;41.13;24.00;;;;;;;0.74;79.86;98388.84;4948166;28;20042;-72
2021/01/04 14:55:21;;;;;;;42.45;23.10;;;;;;;0.68;79.30;98388.75;4948043;28;20023;-71
2021/01/04 14:57:46;;;;;;;38.25;21.67;;;;;;;0.61;79.61;98386.94;4948464;28;21122;-71
2021/01/04 15:00:12;;;;;;;41.78;24.55;;;;;;;0.60;80.21;98389.47;4982880;23;20054;-81
2021/01/04 15:02:38;;;;;;;37.95;23.90;;;;;;;0.73;80.04;98387.13;4986746;28;20952;-81
2021/01/04 15:05:06;;;;;;;38.13;22.50;;;;;;;0.72;79.38;98387.94;4986972;28;20449;-80
2021/01/04 15:07:31;;;;;;;45.22;25.15;;;;;;;0.69;79.68;98395.56;4986736;28;20510;-80
2021/01/04 15:09:56;;;;;;;43.65;25.25;;;;;;;0.72;79.81;98390.47;4984557;28;20040;-70
2021/01/04 15:12:22;;;;;;;38.78;22.10;;;;;;;0.67;79.21;98392.09;4974569;28;20086;-76
2021/01/04 15:14:47;;;;;;;43.30;22.95;;;;;;;0.59;79.94;98388.59;4974612;28;20034;-73
2021/01/04 15:17:13;;;;;;;35.35;22.25;;;;;;;0.77;80.49;98388.00;4974490;28;20476;-76
2021/01/04 15:19:38;;;;;;;42.75;24.52;;;;;;;0.72;80.48;98389.63;4974904;28;20423;-76
2021/01/04 15:22:03;;;;;;;36.25;21.33;;;;;;;0.59;79.80;98388.59;4974101;28;20046;-74
2021/01/04 15:24:29;;;;;;;43.95;23.42;;;;;;;0.58;80.07;98386.91;4974302;28;20031;-74
2021/01/04 15:26:54;;;;;;;33.97;19.67;;;;;;;0.70;79.76;98387.06;4974373;28;20054;-74
2021/01/04 15:29:20;;;;;;;41.75;22.83;;;;;;;0.53;80.11;98388.50;4974166;28;20376;-71
2021/01/04 15:31:52;;;;;;;35.10;19.80;;;;;;;0.48;79.40;98385.00;4974342;28;20106;-75
2021/01/04 15:34:19;;;;;;;39.03;20.30;;;;;;;0.57;79.78;98380.06;4974626;28;20490;-74
2021/01/04 15:36:47;;;;;;;39.50;22.17;;;;;;;0.48;80.12;98387.56;4974153;28;20732;-77
2021/01/04 15:39:12;;;;;;;40.38;22.95;;;;;;;0.52;80.15;98386.78;4974424;28;20033;-72
2021/01/04 15:41:38;;;;;;;48.92;25.50;;;;;;;0.58;80.37;98381.81;4973775;28;20026;-75
2021/01/04 15:44:03;;;;;;;40.47;22.10;;;;;;;0.61;79.57;98379.28;4973144;28;20122;-71
2021/01/04 15:46:31;;;;;;;50.22;23.55;;;;;;;0.55;79.03;98380.88;4974227;28;20031;-74
2021/01/04 15:48:56;;;;;;;44.35;23.83;;;;;;;0.50;79.52;98378.28;4973745;28;20098;-73
2021/01/04 15:51:26;;;;;;;50.22;24.83;;;;;;;0.53;79.93;98385.94;4974016;28;20032;-73
2021/01/04 15:53:51;;;;;;;34.58;20.33;;;;;;;0.57;79.53;98380.06;4973819;28;20027;-74
2021/01/04 15:56:16;;;;;;;30.58;18.75;;;;;;;0.52;79.70;98385.09;4974423;28;20037;-74
2021/01/04 15:58:42;;;;;;;37.53;21.15;;;;;;;0.46;79.86;98382.44;4974060;28;20030;-75
2021/01/04 16:01:08;;;;;;;30.65;19.65;;;;;;;0.42;80.01;98384.94;4973191;28;20034;-74
2021/01/04 16:03:33;;;;;;;33.13;19.75;;;;;;;0.39;80.06;98380.66;4973605;28;20081;-75
2021/01/04 16:05:58;;;;;;;36.03;18.77;;;;;;;0.40;79.40;98376.41;4973619;28;20034;-74
2021/01/04 16:08:24;;;;;;;32.28;19.98;;;;;;;0.38;80.11;98378.91;4972536;28;20035;-79
2021/01/04 16:10:49;;;;;;;35.42;19.98;;;;;;;0.37;79.91;98377.22;4973602;28;20042;-74
2021/01/04 16:13:14;;;;;;;32.03;18.45;;;;;;;0.33;79.83;98374.59;4973488;28;20034;-76
2021/01/04 16:15:40;;;;;;;31.70;18.88;;;;;;;0.37;79.74;98381.44;4974194;28;20033;-76
2021/01/04 16:18:05;;;;;;;26.00;16.73;;;;;;;0.37;79.51;98381.44;4973550;28;20779;-75
2021/01/04 16:20:31;;;;;;;37.42;19.52;;;;;;;0.38;79.76;98378.06;4973175;28;20406;-77
2021/01/04 16:22:57;;;;;;;34.83;18.33;;;;;;;0.42;79.62;98374.72;4973066;28;20026;-76
2021/01/04 16:25:22;;;;;;;37.00;19.10;;;;;;;0.38;79.81;98378.06;4974429;28;20049;-79
2021/01/04 16:27:48;;;;;;;29.20;17.92;;;;;;;0.42;79.87;98373.03;4974001;28;20026;-77
2021/01/04 16:30:14;;;;;;;29.98;17.20;;;;;;;0.37;79.58;98381.44;4973767;28;21370;-74
2021/01/04 16:32:40;;;;;;;29.27;16.65;;;;;;;0.31;79.38;98371.16;4973392;28;20034;-75
2021/01/04 16:35:08;;;;;;;30.10;16.95;;;;;;;0.31;79.74;98377.13;4973169;28;20395;-75
2021/01/04 16:37:34;;;;;;;47.97;22.42;;;;;;;0.32;79.91;98377.97;4973021;28;20058;-75
2021/01/04 16:40:00;;;;;;;27.00;15.43;;;;;;;0.31;79.93;98376.25;4973091;28;20114;-77
2021/01/04 16:42:28;;;;;;;35.55;17.48;;;;;;;0.42;80.03;98380.69;4973158;28;20100;-77
2021/01/04 16:44:53;;;;;;;32.17;16.85;;;;;;;0.33;79.67;98388.19;4972988;28;20030;-78
2021/01/04 16:47:19;;;;;;;24.23;14.52;;;;;;;0.37;79.15;98387.41;4973050;28;20081;-79
2021/01/04 16:49:47;;;;;;;29.73;15.88;;;;;;;0.41;79.45;98393.41;4972904;28;20384;-79
2021/01/04 16:52:13;;;;;;;27.17;15.85;;;;;;;0.28;79.47;98388.94;4973481;28;20041;-73
2021/01/04 16:54:40;;;;;;;29.40;16.80;;;;;;;0.28;79.39;98386.41;4972052;28;20027;-74
2021/01/04 16:57:06;;;;;;;30.50;16.48;;;;;;;0.31;79.96;98387.31;4971274;28;20050;-76
2021/01/04 16:59:32;;;;;;;29.35;16.55;;;;;;;0.30;79.46;98387.28;4971461;28;20385;-76
2021/01/04 17:01:57;;;;;;;27.65;16.42;;;;;;;0.19;79.59;98389.63;4971379;28;20035;-77
2021/01/04 17:04:22;;;;;;;22.38;14.23;;;;;;;0.17;79.66;98391.31;4971528;28;20062;-77
2021/01/04 17:06:52;;;;;;;25.02;15.60;;;;;;;0.14;79.88;98389.56;4972229;28;20060;-79
2021/01/04 17:09:18;;;;;;;31.95;17.65;;;;;;;0.14;80.16;98381.91;4972298;28;20098;-78
2021/01/04 17:11:43;;;;;;;26.95;15.73;;;;;;;0.11;80.17;98379.34;4972094;28;20041;-78
2021/01/04 17:14:11;;;;;;;25.08;15.27;;;;;;;0.18;80.29;98381.16;4972430;28;20042;-78
2021/01/04 17:16:36;;;;;;;28.73;16.42;;;;;;;0.20;80.66;98381.19;4969188;28;20026;-78
2021/01/04 17:19:02;;;;;;;31.17;18.45;;;;;;;0.50;81.62;98388.47;4972916;28;20041;-74
2021/01/04 17:21:30;;;;;;;31.05;17.05;;;;;;;0.53;80.12;98388.50;4972606;28;20113;-79
2021/01/04 17:23:57;;;;;;;32.67;17.08;;;;;;;0.46;79.92;98387.56;4972468;28;20033;-75
2021/01/04 17:26:25;;;;;;;26.30;15.02;;;;;;;0.63;79.86;98395.47;4973068;28;20037;-78
2021/01/04 17:28:52;;;;;;;32.20;17.13;;;;;;;0.57;80.35;98395.34;4972331;28;20207;-74
2021/01/04 17:31:20;;;;;;;30.90;17.05;;;;;;;0.64;79.55;98399.72;4972547;28;20510;-73
2021/01/04 17:33:46;;;;;;;31.30;16.73;;;;;;;0.58;79.02;98404.75;4972832;28;20073;-77
2021/01/04 17:36:12;;;;;;;34.35;17.90;;;;;;;0.54;79.13;98395.31;4973177;28;20038;-79
2021/01/04 17:38:38;;;;;;;34.00;18.25;;;;;;;0.55;79.13;98391.94;4973110;28;20712;-78
2021/01/04 17:41:05;;;;;;;32.33;17.33;;;;;;;0.57;79.08;98399.59;4971878;28;20538;-78
2021/01/04 17:43:31;;;;;;;34.25;17.10;;;;;;;0.56;79.60;98393.66;4972182;28;20081;-78
2021/01/04 17:45:58;;;;;;;34.13;18.00;;;;;;;0.45;80.16;98396.03;4972016;28;20031;-78